DW6162 Weather Reports


Display with metric or nautical units.
time (UTC)temp
F
wind
direction
speed
MPH
gust
MPH
rain 1hr
in
rain 24hr
in
rain mn
in
humidity
%
barometer
mb
20240624034502 64 12 1.0 3.0 0.00 0.18 0.18 94 1002.3
20240624034248 65 63 1.0 5.0 0.00 0.18 0.18 94 1005.8
20240624033348 65 8 2.0 7.0 0.00 0.18 0.18 93 1005.6
20240624033102 64 54 1.0 6.0 0.00 0.18 0.18 93 1002.2
20240624032448 65 1 3.0 6.0 0.00 0.18 0.18 93 1005.5
20240624031548 65 64 1.0 4.0 0.00 0.18 0.18 94 1005.4
20240624031502 64 311 2.0 4.0 0.00 0.18 0.18 94 1001.9
20240624030648 65 65 1.0 3.0 0.00 0.18 0.18 92 1005.2
20240624030105 65 217 1.0 5.0 0.00 0.18 0.18 91 1001.8
20240624025748 66 15 3.0 9.0 0.00 0.18 0.18 91 1005.3
20240624024848 66 352 3.0 9.0 0.00 0.18 0.18 91 1005.3
20240624024502 65 315 3.0 8.0 0.00 0.18 0.18 91 1001.7
20240624023948 66 349 3.0 7.0 0.00 0.18 0.18 91 1005.3
20240624023104 66 32 3.0 6.0 0.00 0.18 0.18 91 1002.0
20240624023048 66 355 2.0 6.0 0.00 0.18 0.18 91 1005.5
20240624022148 66 14 3.0 8.0 0.00 0.18 0.18 92 1005.6
20240624021502 66 162 1.0 7.0 0.00 0.18 0.18 92 1002.0
20240624021248 67 356 3.0 7.0 0.00 0.18 0.18 92 1005.5
20240624020348 67 352 4.0 12.0 0.00 0.18 0.18 93 1005.6
20240624020103 67 347 2.0 12.0 0.00 0.18 0.18 92 1002.0
20240624015448 68 349 4.0 13.0 0.00 0.18 0.18 92 1005.5
20240624014502 67 344 2.0 8.0 0.00 0.18 0.18 94 1001.9
20240624013648 68 349 2.0 7.0 0.00 0.18 0.18 94 1005.2
20240624013111 68 25 2.0 7.0 0.00 0.18 0.18 94 1001.5
20240624012748 68 353 2.0 6.0 0.00 0.18 0.18 95 1004.9
20240624011503 68 324 1.0 8.0 0.00 0.18 0.18 95 1001.4
20240624010101 68 75 0.0 1.0 0.03 0.18 0.18 96 1000.9
20240624010048 68 82 1.0 2.0 0.04 0.18 0.18 96 1004.4
20240624005148 68 87 1.0 4.0 0.04 0.18 0.18 95 1004.3
20240624004502 68 143 1.0 4.0 0.04 0.18 0.18 95 1000.6
20240624004248 69 35 2.0 4.0 0.04 0.18 0.18 95 1004.3
20240624003348 69 18 2.0 6.0 0.04 0.18 0.18 94 1004.0
20240624003103 69 49 1.0 5.0 0.04 0.18 0.18 94 1000.3
20240624002448 69 27 2.0 7.0 0.04 0.18 0.18 95 1004.0
20240624001505 69 350 2.0 6.0 0.04 0.18 0.18 96 1000.3
20240624000648 70 353 1.0 3.0 0.02 0.16 0.16 97 1004.3
20240624000106 70 333 0.0 2.0 0.00 0.14 0.14 97 1000.3
20240623235748 70 91 0.0 2.0 0.00 0.14 0.14 97 1004.2
20240623234502 70 91 0.0 2.0 0.00 0.14 0.14 96 1000.3
20240623233948 70 119 0.0 3.0 0.00 0.14 0.14 96 1004.2
20240623233104 70 130 0.0 2.0 0.00 0.14 0.14 96 1000.2
20240623232148 70 352 0.0 4.0 0.00 0.14 0.14 96 1004.1
20240623231502 70 110 0.0 3.0 0.00 0.14 0.14 96 1000.0
20240623231248 71 101 0.0 2.0 0.00 0.14 0.14 95 1004.0
20240623230348 71 102 0.0 2.0 0.00 0.14 0.14 95 1004.0
20240623230102 71 78 0.0 2.0 0.00 0.14 0.14 95 1000.0
20240623225448 71 61 1.0 3.0 0.01 0.14 0.14 95 1004.0
20240623224548 71 71 1.0 3.0 0.07 0.14 0.14 95 1004.1
20240623224502 71 65 1.0 3.0 0.07 0.14 0.14 95 1000.1
20240623223648 72 60 2.0 7.0 0.07 0.14 0.14 95 1004.4
20240623223101 71 50 2.0 6.0 0.07 0.14 0.14 95 1000.4
20240623222748 72 62 2.0 6.0 0.07 0.14 0.14 95 1004.2
20240623221848 71 62 2.0 4.0 0.07 0.14 0.14 95 1004.1
20240623221502 71 51 1.0 3.0 0.07 0.14 0.14 96 1000.2
20240623220948 71 52 2.0 4.0 0.07 0.14 0.14 95 1004.4
20240623220114 71 103 1.0 7.0 0.07 0.14 0.14 94 1000.5
20240623220048 71 72 3.0 7.0 0.07 0.14 0.14 94 1004.5
20240623215148 72 68 2.0 8.0 0.05 0.11 0.12 94 1004.5
20240623214504 72 322 1.0 8.0 0.01 0.07 0.07 93 1000.3
20240623214248 72 69 2.0 8.0 0.02 0.07 0.07 94 1004.3
20240623213348 72 43 1.0 5.0 0.07 0.07 0.07 94 1004.4
20240623213103 72 61 1.0 4.0 0.07 0.07 0.07 94 1000.3
20240623211548 73 52 2.0 5.0 0.07 0.07 0.07 94 1004.3
20240623211501 73 309 0.0 4.0 0.07 0.07 0.07 94 1000.2
20240623210101 72 72 1.0 5.0 0.07 0.07 0.07 92 1000.2
20240623205748 73 63 2.0 7.0 0.06 0.06 0.06 92 1004.2
20240623204848 74 82 3.0 9.0 0.06 0.06 0.06 90 1004.0
20240623204505 74 257 2.0 7.0 0.06 0.06 0.06 87 999.9
20240623203102 77 85 0.0 2.0 0.00 0.00 0.00 83 1000.0
20240623203048 78 91 0.0 3.0 0.00 0.00 0.00 83 1004.4
20240623202148 78 132 1.0 4.0 0.00 0.00 0.00 82 1004.3
20240623201502 78 98 0.0 4.0 0.00 0.00 0.00 81 1000.2
20240623201248 78 104 1.0 5.0 0.00 0.00 0.00 82 1004.5
20240623200348 77 104 1.0 4.0 0.00 0.00 0.00 81 1004.6
20240623200102 77 89 1.0 3.0 0.00 0.00 0.00 81 1000.3
20240623195448 78 104 2.0 7.0 0.00 0.00 0.00 81 1004.6
20240623194548 78 114 2.0 5.0 0.00 0.00 0.00 79 1004.6
20240623194503 78 100 1.0 7.0 0.00 0.00 0.00 79 1000.4
20240623193102 78 148 1.0 7.0 0.00 0.00 0.00 78 1000.6
20240623192748 79 101 2.0 7.0 0.00 0.00 0.00 78 1004.8
20240623191848 78 96 2.0 7.0 0.00 0.00 0.00 79 1004.7
20240623191504 78 114 2.0 7.0 0.00 0.00 0.00 78 1000.7
20240623190948 78 107 2.0 4.0 0.00 0.00 0.00 80 1005.0
20240623190103 77 192 1.0 5.0 0.00 0.00 0.00 79 1000.9
20240623190048 77 144 2.0 5.0 0.00 0.00 0.00 79 1005.2
20240623185148 78 110 2.0 8.0 0.00 0.00 0.00 77 1005.3
20240623184502 78 255 1.0 6.0 0.00 0.00 0.00 75 1001.1
20240623183348 80 109 2.0 5.0 0.00 0.00 0.00 73 1005.3
20240623183103 79 103 2.0 7.0 0.00 0.00 0.00 72 1001.0
20240623182448 79 89 3.0 8.0 0.00 0.00 0.00 75 1005.3
20240623181548 78 91 2.0 5.0 0.00 0.00 0.00 74 1005.3
20240623181502 78 91 1.0 5.0 0.00 0.00 0.00 76 1001.0
20240623180104 77 153 1.0 5.0 0.00 0.00 0.00 74 1001.3
20240623175748 78 88 3.0 10.0 0.00 0.00 0.00 74 1005.6
20240623174502 78 112 2.0 6.0 0.00 0.00 0.00 73 1001.6
20240623173105 78 111 3.0 10.0 0.00 0.00 0.00 73 1001.6
20240623173048 78 102 2.0 8.0 0.00 0.00 0.00 73 1005.8
20240623171506 78 44 1.0 10.0 0.00 0.00 0.00 76 1001.5
20240623171248 78 90 2.0 6.0 0.00 0.00 0.00 76 1005.8
20240623170348 78 115 2.0 8.0 0.00 0.00 0.00 75 1005.7
20240623170105 78 85 1.0 7.0 0.00 0.00 0.00 75 1001.4
20240623165448 79 110 2.0 6.0 0.00 0.00 0.00 74 1005.9
20240623164503 79 78 2.0 7.0 0.00 0.00 0.00 74 1001.6
20240623163109 79 103 1.0 8.0 0.00 0.00 0.00 73 1001.8
20240623162748 80 99 3.0 8.0 0.00 0.00 0.00 73 1006.2
20240623161502 80 69 2.0 7.0 0.00 0.00 0.00 72 1002.1
20240623160948 80 97 3.0 8.0 0.00 0.00 0.00 73 1006.6
20240623160102 79 75 2.0 7.0 0.00 0.00 0.00 74 1002.3
20240623160048 80 96 3.0 8.0 0.00 0.00 0.00 74 1006.7
20240623155148 80 83 2.0 7.0 0.00 0.00 0.00 75 1006.9
20240623154503 79 338 1.0 7.0 0.00 0.00 0.00 74 1002.6
20240623154248 80 63 3.0 12.0 0.00 0.00 0.00 73 1007.2
20240623153105 80 82 1.0 7.0 0.00 0.00 0.00 74 1002.8
20240623152448 79 105 3.0 8.0 0.00 0.00 0.00 77 1007.2
20240623151548 78 61 3.0 9.0 0.00 0.00 0.00 77 1007.3
20240623151502 78 85 3.0 9.0 0.00 0.00 0.00 78 1003.0
20240623150648 78 63 2.0 8.0 0.00 0.00 0.00 79 1007.5
20240623150103 76 88 1.0 6.0 0.00 0.00 0.00 80 1003.1
20240623144848 77 79 3.0 5.0 0.00 0.00 0.00 79 1007.4
20240623144502 76 81 2.0 10.0 0.00 0.00 0.00 79 1003.1
20240623143948 77 93 2.0 7.0 0.00 0.00 0.00 79 1007.6
20240623143102 77 79 1.0 6.0 0.00 0.00 0.00 81 1003.3
20240623143048 78 86 2.0 6.0 0.00 0.00 0.00 81 1007.7
20240623142148 78 83 2.0 7.0 0.00 0.00 0.00 81 1007.6
20240623141504 77 118 2.0 6.0 0.00 0.00 0.00 82 1003.4
20240623141248 77 103 1.0 5.0 0.00 0.00 0.00 82 1007.8
20240623140348 77 89 1.0 4.0 0.00 0.00 0.00 82 1007.7
20240623140102 76 78 1.0 4.0 0.00 0.00 0.00 83 1003.5
20240623135448 76 136 1.0 4.0 0.00 0.00 0.00 84 1007.8
20240623134502 75 94 0.0 3.0 0.00 0.00 0.00 85 1003.6
20240623133648 74 130 0.0 3.0 0.00 0.00 0.00 86 1008.0
20240623133106 74 115 0.0 2.0 0.00 0.00 0.00 85 1003.8
20240623132748 74 135 0.0 2.0 0.00 0.00 0.00 86 1008.0
20240623131502 74 112 0.0 3.0 0.00 0.00 0.00 86 1003.8
20240623130948 74 129 1.0 4.0 0.00 0.00 0.00 86 1008.3
20240623130101 73 141 0.0 3.0 0.00 0.00 0.00 86 1004.1
20240623130048 74 141 1.0 5.0 0.00 0.00 0.00 86 1008.5
20240623125148 73 145 1.0 5.0 0.00 0.00 0.00 87 1008.7
20240623124502 73 151 1.0 4.0 0.00 0.00 0.00 86 1004.5
20240623124248 73 136 1.0 3.0 0.00 0.00 0.00 86 1008.8
20240623123348 73 152 1.0 4.0 0.00 0.00 0.00 86 1008.9
20240623123103 73 126 0.0 4.0 0.00 0.00 0.00 86 1004.5
20240623121548 73 145 1.0 5.0 0.00 0.00 0.00 86 1009.2
20240623121501 73 121 0.0 5.0 0.00 0.00 0.00 86 1004.8
20240623120648 73 148 1.0 4.0 0.00 0.00 0.00 87 1009.2
20240623120103 72 150 0.0 4.0 0.00 0.00 0.00 87 1005.0
20240623115748 73 143 1.0 4.0 0.00 0.00 0.00 86 1009.2
20240623114848 73 147 1.0 3.0 0.00 0.00 0.00 87 1009.3
20240623114502 72 159 1.0 3.0 0.00 0.00 0.00 87 1005.1
20240623113102 72 134 0.0 3.0 0.00 0.00 0.00 89 1005.3
20240623113048 72 147 0.0 2.0 0.00 0.00 0.00 88 1009.5
20240623111502 71 119 0.0 1.0 0.00 0.00 0.00 89 1005.4
20240623111248 71 166 0.0 4.0 0.00 0.00 0.00 89 1009.5
20240623110104 71 85 0.0 4.0 0.00 0.00 0.00 89 1005.6
20240623105448 71 138 0.0 2.0 0.00 0.00 0.00 89 1009.7
20240623104503 70 74 0.0 2.0 0.00 0.00 0.00 90 1005.5
20240623103648 71 144 1.0 5.0 0.00 0.00 0.00 90 1009.8
20240623103104 70 188 1.0 5.0 0.00 0.00 0.00 90 1005.7
20240623102748 70 148 0.0 2.0 0.00 0.00 0.00 90 1009.7
20240623101508 70 133 0.0 3.0 0.00 0.00 0.00 90 1005.8
20240623100948 70 140 1.0 3.0 0.00 0.00 0.00 90 1009.8
20240623100103 70 134 0.0 3.0 0.00 0.00 0.00 91 1005.8
20240623100048 70 147 1.0 3.0 0.00 0.00 0.00 91 1010.0
20240623095148 70 137 0.0 3.0 0.00 0.00 0.00 91 1010.2
20240623094502 70 144 0.0 3.0 0.00 0.00 0.00 91 1006.1
20240623094248 70 150 0.0 2.0 0.00 0.00 0.00 91 1010.3
20240623093348 71 150 0.0 2.0 0.00 0.00 0.00 91 1010.3
20240623093111 70 156 0.0 3.0 0.00 0.00 0.00 91 1006.2
20240623091548 71 155 0.0 2.0 0.00 0.00 0.00 91 1010.5
20240623091502 70 194 0.0 2.0 0.00 0.00 0.00 91 1006.3
20240623090648 71 150 0.0 1.0 0.00 0.00 0.00 91 1010.6
20240623090103 70 159 0.0 2.0 0.00 0.00 0.00 91 1006.5
20240623085748 71 146 0.0 2.0 0.00 0.00 0.00 91 1010.7
20240623084848 71 155 0.0 2.0 0.00 0.00 0.00 92 1010.8
20240623084502 70 134 0.0 2.0 0.00 0.00 0.00 92 1006.7
20240623083948 71 152 0.0 2.0 0.00 0.00 0.00 92 1010.8
20240623083102 70 151 0.0 2.0 0.00 0.00 0.00 92 1006.6
20240623083048 70 140 0.0 2.0 0.00 0.00 0.00 92 1010.8
20240623082148 71 101 0.0 1.0 0.00 0.00 0.00 92 1011.0
20240623081507 70 146 0.0 1.0 0.00 0.00 0.00 92 1006.9
20240623081248 71 148 0.0 1.0 0.00 0.00 0.00 92 1011.0
20240623080348 71 151 0.0 1.0 0.00 0.00 0.00 92 1011.1
20240623080103 71 150 0.0 1.0 0.00 0.00 0.00 92 1006.9
20240623074502 71 148 0.0 2.0 0.00 0.00 0.00 91 1007.0
20240623073648 71 141 0.0 2.0 0.00 0.00 0.00 91 1011.3
20240623073103 71 197 0.0 3.0 0.00 0.00 0.00 91 1007.1
20240623071848 72 0 0.0 0.0 0.00 0.00 0.00 91 1011.5
20240623071503 71 153 0.0 0.0 0.00 0.00 0.00 91 1007.3
20240623070948 72 0 0.0 0.0 0.00 0.00 0.00 91 1011.6
20240623070106 71 154 0.0 0.0 0.00 0.00 0.00 91 1007.5
20240623070048 72 0 0.0 0.0 0.00 0.00 0.00 91 1011.6
20240623065148 72 0 0.0 0.0 0.00 0.00 0.00 91 1011.9
20240623064503 71 154 0.0 0.0 0.00 0.00 0.00 91 1007.7
20240623063348 71 145 0.0 1.0 0.00 0.00 0.00 92 1012.0
20240623063105 71 146 0.0 2.0 0.00 0.00 0.00 92 1007.9
20240623062448 71 156 0.0 1.0 0.00 0.00 0.00 92 1012.1
20240623061502 71 153 0.0 0.0 0.00 0.00 0.00 92 1008.2
20240623060648 72 0 0.0 0.0 0.00 0.00 0.00 92 1012.6
20240623060111 71 153 0.0 0.0 0.00 0.00 0.00 91 1008.6
20240623055748 72 0 0.0 0.0 0.00 0.00 0.00 91 1012.8
20240623054848 72 153 0.0 2.0 0.00 0.00 0.00 91 1012.9
20240623054502 72 154 0.0 1.0 0.00 0.00 0.00 91 1008.7
20240623053103 72 151 0.0 1.0 0.00 0.00 0.00 91 1008.9
20240623053048 72 149 0.0 1.0 0.00 0.00 0.00 91 1013.2
20240623052148 73 155 0.0 2.0 0.00 0.00 0.00 90 1013.1
20240623051502 72 159 0.0 2.0 0.00 0.00 0.00 90 1008.9
20240623051248 73 139 0.0 1.0 0.00 0.00 0.00 90 1013.1
20240623050348 73 0 0.0 0.0 0.00 0.00 0.00 90 1013.2
20240623050113 72 157 0.0 0.0 0.00 0.00 0.00 90 1009.1
20240623045448 73 0 0.0 0.0 0.00 0.00 0.00 90 1013.4
20240623044548 72 0 0.0 0.0 0.00 0.00 0.00 91 1013.5
20240623044502 72 156 0.0 1.0 0.00 0.00 0.00 91 1009.3
20240623043648 72 0 0.0 0.0 0.00 0.00 0.00 91 1013.4
20240623043108 72 157 0.0 0.0 0.00 0.00 0.00 90 1009.2
20240623042748 73 0 0.0 0.0 0.00 0.00 0.00 90 1013.4
20240623041848 73 0 0.0 0.0 0.00 0.00 0.00 90 1013.5
20240623041502 72 156 0.0 1.0 0.00 0.00 0.00 89 1009.4
20240623040948 73 156 0.0 1.0 0.00 0.00 0.00 89 1013.7
20240623040102 72 130 0.0 0.0 0.00 0.00 0.00 89 1009.7
20240623040050 73 0 0.0 0.0 0.00 0.00 0.00 89 1013.8